sensor_id;sensor_type;location;lat;lon;timestamp;P1;durP1;ratioP1;P2;durP2;ratioP2
30080;SDS011;16902;50.816;12.828;2023-11-18T00:01:33;8.18;;;7.82;;
30080;SDS011;16902;50.816;12.828;2023-11-18T00:06:35;8.13;;;7.72;;
30080;SDS011;16902;50.816;12.828;2023-11-18T00:11:36;7.82;;;7.53;;
30080;SDS011;16902;50.816;12.828;2023-11-18T00:16:39;8.35;;;7.88;;
30080;SDS011;16902;50.816;12.828;2023-11-18T00:21:41;8.52;;;8.05;;
30080;SDS011;16902;50.816;12.828;2023-11-18T00:26:44;8.52;;;8.07;;
30080;SDS011;16902;50.816;12.828;2023-11-18T00:31:45;8.27;;;7.88;;
30080;SDS011;16902;50.816;12.828;2023-11-18T00:36:47;8.07;;;7.68;;
30080;SDS011;16902;50.816;12.828;2023-11-18T00:41:49;7.65;;;7.35;;
30080;SDS011;16902;50.816;12.828;2023-11-18T00:46:51;8.48;;;8.10;;
30080;SDS011;16902;50.816;12.828;2023-11-18T00:51:55;7.50;;;7.20;;
30080;SDS011;16902;50.816;12.828;2023-11-18T00:56:57;8.63;;;8.20;;
30080;SDS011;16902;50.816;12.828;2023-11-18T01:01:58;7.97;;;7.68;;
30080;SDS011;16902;50.816;12.828;2023-11-18T01:07:00;8.50;;;8.00;;
30080;SDS011;16902;50.816;12.828;2023-11-18T01:12:02;7.72;;;7.43;;
30080;SDS011;16902;50.816;12.828;2023-11-18T01:17:09;9.00;;;8.50;;
30080;SDS011;16902;50.816;12.828;2023-11-18T01:22:11;8.02;;;7.70;;
30080;SDS011;16902;50.816;12.828;2023-11-18T01:27:13;8.75;;;8.30;;
30080;SDS011;16902;50.816;12.828;2023-11-18T01:32:15;7.85;;;7.55;;
30080;SDS011;16902;50.816;12.828;2023-11-18T01:37:19;8.15;;;7.75;;
30080;SDS011;16902;50.816;12.828;2023-11-18T01:42:24;8.00;;;7.70;;
30080;SDS011;16902;50.816;12.828;2023-11-18T01:47:26;8.65;;;8.25;;
30080;SDS011;16902;50.816;12.828;2023-11-18T01:52:28;8.40;;;8.00;;
30080;SDS011;16902;50.816;12.828;2023-11-18T01:57:32;9.40;;;8.80;;
30080;SDS011;16902;50.816;12.828;2023-11-18T02:02:35;8.70;;;8.30;;
30080;SDS011;16902;50.816;12.828;2023-11-18T02:07:40;7.95;;;7.65;;
30080;SDS011;16902;50.816;12.828;2023-11-18T02:12:55;8.65;;;8.32;;
30080;SDS011;16902;50.816;12.828;2023-11-18T02:18:07;8.45;;;7.95;;
30080;SDS011;16902;50.816;12.828;2023-11-18T02:23:11;7.80;;;7.50;;
30080;SDS011;16902;50.816;12.828;2023-11-18T02:28:12;8.13;;;7.80;;
30080;SDS011;16902;50.816;12.828;2023-11-18T02:33:17;9.63;;;9.13;;
30080;SDS011;16902;50.816;12.828;2023-11-18T02:38:24;8.85;;;8.38;;
30080;SDS011;16902;50.816;12.828;2023-11-18T02:43:33;8.70;;;8.30;;
30080;SDS011;16902;50.816;12.828;2023-11-18T02:48:38;9.50;;;9.10;;
30080;SDS011;16902;50.816;12.828;2023-11-18T02:53:40;9.40;;;8.82;;
30080;SDS011;16902;50.816;12.828;2023-11-18T02:58:42;9.02;;;8.52;;
30080;SDS011;16902;50.816;12.828;2023-11-18T03:03:44;8.65;;;8.07;;
30080;SDS011;16902;50.816;12.828;2023-11-18T03:08:46;7.97;;;7.57;;
30080;SDS011;16902;50.816;12.828;2023-11-18T03:13:47;9.32;;;8.77;;
30080;SDS011;16902;50.816;12.828;2023-11-18T03:18:49;8.63;;;8.23;;
30080;SDS011;16902;50.816;12.828;2023-11-18T03:23:51;9.20;;;8.45;;
30080;SDS011;16902;50.816;12.828;2023-11-18T03:28:54;9.60;;;8.70;;
30080;SDS011;16902;50.816;12.828;2023-11-18T03:33:55;9.80;;;9.10;;
30080;SDS011;16902;50.816;12.828;2023-11-18T03:38:57;8.80;;;8.30;;
30080;SDS011;16902;50.816;12.828;2023-11-18T03:43:59;8.48;;;8.10;;
30080;SDS011;16902;50.816;12.828;2023-11-18T03:49:01;8.88;;;8.38;;
30080;SDS011;16902;50.816;12.828;2023-11-18T03:54:02;7.90;;;7.55;;
30080;SDS011;16902;50.816;12.828;2023-11-18T03:59:05;9.70;;;9.10;;
30080;SDS011;16902;50.816;12.828;2023-11-18T04:04:07;9.30;;;8.70;;
30080;SDS011;16902;50.816;12.828;2023-11-18T04:09:08;8.82;;;8.43;;
30080;SDS011;16902;50.816;12.828;2023-11-18T04:14:14;9.15;;;8.55;;
30080;SDS011;16902;50.816;12.828;2023-11-18T04:19:16;10.98;;;10.15;;
30080;SDS011;16902;50.816;12.828;2023-11-18T04:24:17;9.35;;;8.82;;
30080;SDS011;16902;50.816;12.828;2023-11-18T04:29:19;9.20;;;8.70;;
30080;SDS011;16902;50.816;12.828;2023-11-18T04:34:22;9.70;;;8.73;;
30080;SDS011;16902;50.816;12.828;2023-11-18T04:39:24;8.77;;;8.27;;
30080;SDS011;16902;50.816;12.828;2023-11-18T04:44:26;8.77;;;8.38;;
30080;SDS011;16902;50.816;12.828;2023-11-18T04:49:28;8.45;;;8.05;;
30080;SDS011;16902;50.816;12.828;2023-11-18T04:54:31;8.95;;;8.52;;
30080;SDS011;16902;50.816;12.828;2023-11-18T04:59:32;9.90;;;9.27;;
30080;SDS011;16902;50.816;12.828;2023-11-18T05:04:34;10.05;;;9.00;;
30080;SDS011;16902;50.816;12.828;2023-11-18T05:09:37;9.05;;;8.43;;
30080;SDS011;16902;50.816;12.828;2023-11-18T05:14:39;9.07;;;8.57;;
30080;SDS011;16902;50.816;12.828;2023-11-18T05:19:40;10.35;;;9.75;;
30080;SDS011;16902;50.816;12.828;2023-11-18T05:24:43;10.55;;;9.90;;
30080;SDS011;16902;50.816;12.828;2023-11-18T05:29:45;8.82;;;8.38;;
30080;SDS011;16902;50.816;12.828;2023-11-18T05:34:50;9.18;;;8.68;;
30080;SDS011;16902;50.816;12.828;2023-11-18T05:39:55;9.65;;;9.15;;
30080;SDS011;16902;50.816;12.828;2023-11-18T05:45:07;9.23;;;8.65;;
30080;SDS011;16902;50.816;12.828;2023-11-18T05:50:12;8.73;;;8.25;;
30080;SDS011;16902;50.816;12.828;2023-11-18T05:55:16;9.73;;;9.00;;
30080;SDS011;16902;50.816;12.828;2023-11-18T06:00:18;9.95;;;9.35;;
30080;SDS011;16902;50.816;12.828;2023-11-18T06:05:30;11.00;;;8.85;;
30080;SDS011;16902;50.816;12.828;2023-11-18T06:10:36;9.20;;;8.75;;
30080;SDS011;16902;50.816;12.828;2023-11-18T06:15:40;9.95;;;9.30;;
30080;SDS011;16902;50.816;12.828;2023-11-18T06:20:41;9.38;;;8.88;;
30080;SDS011;16902;50.816;12.828;2023-11-18T06:25:44;9.07;;;8.38;;
30080;SDS011;16902;50.816;12.828;2023-11-18T06:30:47;9.45;;;8.75;;
30080;SDS011;16902;50.816;12.828;2023-11-18T06:35:49;9.73;;;8.93;;
30080;SDS011;16902;50.816;12.828;2023-11-18T06:40:51;9.95;;;9.35;;
30080;SDS011;16902;50.816;12.828;2023-11-18T06:45:54;8.85;;;8.35;;
30080;SDS011;16902;50.816;12.828;2023-11-18T06:50:56;10.07;;;9.32;;
30080;SDS011;16902;50.816;12.828;2023-11-18T06:55:58;9.52;;;9.02;;
30080;SDS011;16902;50.816;12.828;2023-11-18T07:00:59;10.70;;;9.65;;
30080;SDS011;16902;50.816;12.828;2023-11-18T07:06:02;10.18;;;9.63;;
30080;SDS011;16902;50.816;12.828;2023-11-18T07:11:07;11.07;;;10.45;;
30080;SDS011;16902;50.816;12.828;2023-11-18T07:16:08;9.95;;;9.10;;
30080;SDS011;16902;50.816;12.828;2023-11-18T07:21:11;11.07;;;10.23;;
30080;SDS011;16902;50.816;12.828;2023-11-18T07:26:13;9.98;;;9.38;;
30080;SDS011;16902;50.816;12.828;2023-11-18T07:31:18;9.25;;;8.73;;
30080;SDS011;16902;50.816;12.828;2023-11-18T07:36:20;9.35;;;8.95;;
30080;SDS011;16902;50.816;12.828;2023-11-18T07:41:21;9.40;;;8.85;;
30080;SDS011;16902;50.816;12.828;2023-11-18T07:46:32;10.13;;;9.50;;
30080;SDS011;16902;50.816;12.828;2023-11-18T07:51:33;9.95;;;9.32;;
30080;SDS011;16902;50.816;12.828;2023-11-18T07:56:35;9.75;;;9.18;;
30080;SDS011;16902;50.816;12.828;2023-11-18T08:01:40;10.77;;;9.90;;
30080;SDS011;16902;50.816;12.828;2023-11-18T08:06:46;9.93;;;9.13;;
30080;SDS011;16902;50.816;12.828;2023-11-18T08:11:49;10.00;;;9.30;;
30080;SDS011;16902;50.816;12.828;2023-11-18T08:16:50;10.60;;;9.95;;
30080;SDS011;16902;50.816;12.828;2023-11-18T08:21:54;10.52;;;9.82;;
30080;SDS011;16902;50.816;12.828;2023-11-18T08:26:55;10.13;;;9.52;;
30080;SDS011;16902;50.816;12.828;2023-11-18T08:31:57;10.90;;;10.30;;
30080;SDS011;16902;50.816;12.828;2023-11-18T08:36:59;11.70;;;11.00;;
30080;SDS011;16902;50.816;12.828;2023-11-18T08:42:01;11.10;;;10.48;;
30080;SDS011;16902;50.816;12.828;2023-11-18T08:47:03;10.63;;;10.05;;
30080;SDS011;16902;50.816;12.828;2023-11-18T08:52:10;11.73;;;11.13;;
30080;SDS011;16902;50.816;12.828;2023-11-18T08:57:14;10.35;;;9.85;;
30080;SDS011;16902;50.816;12.828;2023-11-18T09:02:26;10.80;;;10.20;;
30080;SDS011;16902;50.816;12.828;2023-11-18T09:07:34;11.85;;;11.05;;
30080;SDS011;16902;50.816;12.828;2023-11-18T09:12:38;10.77;;;10.18;;
30080;SDS011;16902;50.816;12.828;2023-11-18T09:17:42;12.85;;;11.85;;
30080;SDS011;16902;50.816;12.828;2023-11-18T09:22:46;12.40;;;11.70;;
30080;SDS011;16902;50.816;12.828;2023-11-18T09:27:48;13.40;;;12.35;;
30080;SDS011;16902;50.816;12.828;2023-11-18T09:32:49;11.60;;;10.80;;
30080;SDS011;16902;50.816;12.828;2023-11-18T09:37:52;11.68;;;10.90;;
30080;SDS011;16902;50.816;12.828;2023-11-18T09:42:54;12.18;;;11.40;;
30080;SDS011;16902;50.816;12.828;2023-11-18T09:47:59;11.38;;;10.57;;
30080;SDS011;16902;50.816;12.828;2023-11-18T09:53:05;11.35;;;10.65;;
30080;SDS011;16902;50.816;12.828;2023-11-18T09:58:14;11.52;;;10.82;;
30080;SDS011;16902;50.816;12.828;2023-11-18T10:03:19;11.82;;;11.13;;
30080;SDS011;16902;50.816;12.828;2023-11-18T10:08:24;11.55;;;10.75;;
30080;SDS011;16902;50.816;12.828;2023-11-18T10:13:27;11.43;;;10.82;;
30080;SDS011;16902;50.816;12.828;2023-11-18T10:18:29;12.45;;;11.40;;
30080;SDS011;16902;50.816;12.828;2023-11-18T10:23:32;12.43;;;11.55;;
30080;SDS011;16902;50.816;12.828;2023-11-18T10:28:35;12.40;;;11.60;;
30080;SDS011;16902;50.816;12.828;2023-11-18T10:33:40;13.00;;;12.18;;
30080;SDS011;16902;50.816;12.828;2023-11-18T10:38:45;13.07;;;12.27;;
30080;SDS011;16902;50.816;12.828;2023-11-18T10:44:07;13.30;;;12.48;;
30080;SDS011;16902;50.816;12.828;2023-11-18T10:49:11;13.63;;;12.73;;
30080;SDS011;16902;50.816;12.828;2023-11-18T10:54:13;15.85;;;14.63;;
30080;SDS011;16902;50.816;12.828;2023-11-18T10:59:18;14.75;;;13.50;;
30080;SDS011;16902;50.816;12.828;2023-11-18T11:04:21;15.13;;;13.82;;
30080;SDS011;16902;50.816;12.828;2023-11-18T11:09:23;13.15;;;12.35;;
30080;SDS011;16902;50.816;12.828;2023-11-18T11:14:37;13.32;;;12.43;;
30080;SDS011;16902;50.816;12.828;2023-11-18T11:19:50;13.95;;;13.13;;
30080;SDS011;16902;50.816;12.828;2023-11-18T11:25:20;15.50;;;14.52;;
30080;SDS011;16902;50.816;12.828;2023-11-18T11:30:29;14.73;;;13.80;;
30080;SDS011;16902;50.816;12.828;2023-11-18T11:35:36;13.65;;;13.02;;
30080;SDS011;16902;50.816;12.828;2023-11-18T11:40:41;13.10;;;12.40;;
30080;SDS011;16902;50.816;12.828;2023-11-18T11:45:44;14.15;;;13.35;;
30080;SDS011;16902;50.816;12.828;2023-11-18T11:51:10;14.38;;;13.48;;
30080;SDS011;16902;50.816;12.828;2023-11-18T11:56:34;14.13;;;13.43;;
30080;SDS011;16902;50.816;12.828;2023-11-18T12:01:40;14.02;;;13.32;;
30080;SDS011;16902;50.816;12.828;2023-11-18T12:06:47;14.50;;;13.60;;
30080;SDS011;16902;50.816;12.828;2023-11-18T12:11:49;14.40;;;13.68;;
30080;SDS011;16902;50.816;12.828;2023-11-18T12:17:04;14.80;;;13.90;;
30080;SDS011;16902;50.816;12.828;2023-11-18T12:22:22;14.70;;;13.90;;
30080;SDS011;16902;50.816;12.828;2023-11-18T12:38:14;14.07;;;13.25;;
30080;SDS011;16902;50.816;12.828;2023-11-18T12:48:49;14.30;;;13.60;;
30080;SDS011;16902;50.816;12.828;2023-11-18T12:53:53;13.95;;;13.27;;
30080;SDS011;16902;50.816;12.828;2023-11-18T12:58:55;14.98;;;14.27;;
30080;SDS011;16902;50.816;12.828;2023-11-18T13:03:57;14.45;;;13.73;;
30080;SDS011;16902;50.816;12.828;2023-11-18T13:08:59;14.43;;;13.73;;
30080;SDS011;16902;50.816;12.828;2023-11-18T13:14:01;14.48;;;13.82;;
30080;SDS011;16902;50.816;12.828;2023-11-18T13:19:04;13.70;;;13.00;;
30080;SDS011;16902;50.816;12.828;2023-11-18T13:24:06;13.88;;;13.27;;
30080;SDS011;16902;50.816;12.828;2023-11-18T13:29:09;14.45;;;13.75;;
30080;SDS011;16902;50.816;12.828;2023-11-18T13:39:52;14.43;;;13.73;;
30080;SDS011;16902;50.816;12.828;2023-11-18T13:44:59;13.50;;;12.85;;
30080;SDS011;16902;50.816;12.828;2023-11-18T13:50:08;13.48;;;12.75;;
30080;SDS011;16902;50.816;12.828;2023-11-18T13:55:11;12.52;;;12.02;;
30080;SDS011;16902;50.816;12.828;2023-11-18T14:00:18;14.30;;;13.57;;
30080;SDS011;16902;50.816;12.828;2023-11-18T14:05:24;13.15;;;12.65;;
30080;SDS011;16902;50.816;12.828;2023-11-18T14:10:26;14.07;;;13.38;;
30080;SDS011;16902;50.816;12.828;2023-11-18T14:15:29;13.00;;;12.50;;
30080;SDS011;16902;50.816;12.828;2023-11-18T14:20:32;13.05;;;12.40;;
30080;SDS011;16902;50.816;12.828;2023-11-18T14:25:34;12.38;;;11.88;;
30080;SDS011;16902;50.816;12.828;2023-11-18T14:30:36;12.68;;;12.18;;
30080;SDS011;16902;50.816;12.828;2023-11-18T14:35:38;12.07;;;11.48;;
30080;SDS011;16902;50.816;12.828;2023-11-18T14:40:41;12.32;;;11.82;;
30080;SDS011;16902;50.816;12.828;2023-11-18T14:45:43;12.45;;;11.75;;
30080;SDS011;16902;50.816;12.828;2023-11-18T14:50:45;11.95;;;11.45;;
30080;SDS011;16902;50.816;12.828;2023-11-18T14:55:47;11.50;;;11.00;;
30080;SDS011;16902;50.816;12.828;2023-11-18T15:00:49;12.00;;;11.50;;
30080;SDS011;16902;50.816;12.828;2023-11-18T15:05:51;11.48;;;10.98;;
30080;SDS011;16902;50.816;12.828;2023-11-18T15:10:53;11.43;;;10.85;;
30080;SDS011;16902;50.816;12.828;2023-11-18T15:15:55;10.32;;;9.93;;
30080;SDS011;16902;50.816;12.828;2023-11-18T15:20:57;10.18;;;9.70;;
30080;SDS011;16902;50.816;12.828;2023-11-18T15:25:59;10.32;;;9.88;;
30080;SDS011;16902;50.816;12.828;2023-11-18T15:31:01;10.40;;;9.90;;
30080;SDS011;16902;50.816;12.828;2023-11-18T15:36:04;11.57;;;10.80;;
30080;SDS011;16902;50.816;12.828;2023-11-18T15:41:09;10.30;;;9.70;;
30080;SDS011;16902;50.816;12.828;2023-11-18T15:46:12;10.48;;;9.75;;
30080;SDS011;16902;50.816;12.828;2023-11-18T15:51:15;10.63;;;9.73;;
30080;SDS011;16902;50.816;12.828;2023-11-18T15:56:18;9.55;;;9.15;;
30080;SDS011;16902;50.816;12.828;2023-11-18T16:01:20;11.15;;;10.02;;
30080;SDS011;16902;50.816;12.828;2023-11-18T16:06:22;9.75;;;9.23;;
30080;SDS011;16902;50.816;12.828;2023-11-18T16:11:24;9.30;;;8.90;;
30080;SDS011;16902;50.816;12.828;2023-11-18T16:16:26;9.23;;;8.82;;
30080;SDS011;16902;50.816;12.828;2023-11-18T16:21:28;10.15;;;9.65;;
30080;SDS011;16902;50.816;12.828;2023-11-18T16:26:30;9.35;;;8.95;;
30080;SDS011;16902;50.816;12.828;2023-11-18T16:31:33;9.73;;;9.32;;
30080;SDS011;16902;50.816;12.828;2023-11-18T16:36:36;9.02;;;8.63;;
30080;SDS011;16902;50.816;12.828;2023-11-18T16:41:40;9.32;;;8.93;;
30080;SDS011;16902;50.816;12.828;2023-11-18T16:46:46;9.88;;;9.30;;
30080;SDS011;16902;50.816;12.828;2023-11-18T16:51:48;10.02;;;9.43;;
30080;SDS011;16902;50.816;12.828;2023-11-18T16:56:56;11.10;;;10.60;;
30080;SDS011;16902;50.816;12.828;2023-11-18T17:01:58;10.18;;;9.68;;
30080;SDS011;16902;50.816;12.828;2023-11-18T17:07:00;9.20;;;8.80;;
30080;SDS011;16902;50.816;12.828;2023-11-18T17:12:01;9.55;;;9.05;;
30080;SDS011;16902;50.816;12.828;2023-11-18T17:17:03;10.25;;;9.60;;
30080;SDS011;16902;50.816;12.828;2023-11-18T17:22:06;10.82;;;10.30;;
30080;SDS011;16902;50.816;12.828;2023-11-18T17:27:07;10.15;;;9.75;;
30080;SDS011;16902;50.816;12.828;2023-11-18T17:32:09;9.48;;;8.98;;
30080;SDS011;16902;50.816;12.828;2023-11-18T17:37:11;9.27;;;8.93;;
30080;SDS011;16902;50.816;12.828;2023-11-18T17:42:13;9.90;;;9.50;;
30080;SDS011;16902;50.816;12.828;2023-11-18T17:47:15;9.30;;;8.93;;
30080;SDS011;16902;50.816;12.828;2023-11-18T17:52:17;9.68;;;9.27;;
30080;SDS011;16902;50.816;12.828;2023-11-18T17:57:19;10.35;;;9.77;;
30080;SDS011;16902;50.816;12.828;2023-11-18T18:02:21;10.10;;;9.57;;
30080;SDS011;16902;50.816;12.828;2023-11-18T18:07:23;9.80;;;9.35;;
30080;SDS011;16902;50.816;12.828;2023-11-18T18:12:26;9.68;;;9.18;;
30080;SDS011;16902;50.816;12.828;2023-11-18T18:17:28;9.27;;;8.88;;
30080;SDS011;16902;50.816;12.828;2023-11-18T18:22:30;10.23;;;9.63;;
30080;SDS011;16902;50.816;12.828;2023-11-18T18:27:32;10.10;;;9.60;;
30080;SDS011;16902;50.816;12.828;2023-11-18T18:32:35;10.07;;;9.55;;
30080;SDS011;16902;50.816;12.828;2023-11-18T18:37:37;10.23;;;9.73;;
30080;SDS011;16902;50.816;12.828;2023-11-18T18:42:40;10.23;;;9.63;;
30080;SDS011;16902;50.816;12.828;2023-11-18T18:47:42;9.02;;;8.60;;
30080;SDS011;16902;50.816;12.828;2023-11-18T18:52:44;11.40;;;10.75;;
30080;SDS011;16902;50.816;12.828;2023-11-18T18:57:46;10.05;;;9.60;;
30080;SDS011;16902;50.816;12.828;2023-11-18T19:02:48;9.93;;;9.40;;
30080;SDS011;16902;50.816;12.828;2023-11-18T19:07:52;9.68;;;9.10;;
30080;SDS011;16902;50.816;12.828;2023-11-18T19:12:57;11.10;;;10.05;;
30080;SDS011;16902;50.816;12.828;2023-11-18T19:18:02;9.23;;;8.73;;
30080;SDS011;16902;50.816;12.828;2023-11-18T19:23:06;11.70;;;11.00;;
30080;SDS011;16902;50.816;12.828;2023-11-18T19:28:08;11.25;;;10.38;;
30080;SDS011;16902;50.816;12.828;2023-11-18T19:33:11;11.20;;;10.50;;
30080;SDS011;16902;50.816;12.828;2023-11-18T19:38:14;10.75;;;10.25;;
30080;SDS011;16902;50.816;12.828;2023-11-18T19:43:15;10.05;;;9.63;;
30080;SDS011;16902;50.816;12.828;2023-11-18T19:48:17;11.13;;;10.43;;
30080;SDS011;16902;50.816;12.828;2023-11-18T19:53:19;10.25;;;9.75;;
30080;SDS011;16902;50.816;12.828;2023-11-18T19:58:22;10.60;;;10.02;;
30080;SDS011;16902;50.816;12.828;2023-11-18T20:03:23;9.65;;;9.15;;
30080;SDS011;16902;50.816;12.828;2023-11-18T20:08:26;10.05;;;9.32;;
30080;SDS011;16902;50.816;12.828;2023-11-18T20:13:28;9.82;;;9.23;;
30080;SDS011;16902;50.816;12.828;2023-11-18T20:18:29;10.10;;;9.50;;
30080;SDS011;16902;50.816;12.828;2023-11-18T20:23:31;11.15;;;10.55;;
30080;SDS011;16902;50.816;12.828;2023-11-18T20:28:33;9.52;;;9.13;;
30080;SDS011;16902;50.816;12.828;2023-11-18T20:33:36;9.70;;;9.30;;
30080;SDS011;16902;50.816;12.828;2023-11-18T20:38:43;10.70;;;10.20;;
30080;SDS011;16902;50.816;12.828;2023-11-18T20:43:45;9.93;;;9.43;;
30080;SDS011;16902;50.816;12.828;2023-11-18T20:48:48;9.82;;;9.43;;
30080;SDS011;16902;50.816;12.828;2023-11-18T20:53:50;8.70;;;8.35;;
30080;SDS011;16902;50.816;12.828;2023-11-18T20:58:52;9.80;;;9.35;;
30080;SDS011;16902;50.816;12.828;2023-11-18T21:03:54;8.57;;;8.20;;
30080;SDS011;16902;50.816;12.828;2023-11-18T21:08:56;8.93;;;8.43;;
30080;SDS011;16902;50.816;12.828;2023-11-18T21:13:58;9.02;;;8.68;;
30080;SDS011;16902;50.816;12.828;2023-11-18T21:18:59;11.15;;;10.60;;
30080;SDS011;16902;50.816;12.828;2023-11-18T21:24:02;9.68;;;9.18;;
30080;SDS011;16902;50.816;12.828;2023-11-18T21:29:05;9.40;;;8.90;;
30080;SDS011;16902;50.816;12.828;2023-11-18T21:34:06;9.02;;;8.43;;
30080;SDS011;16902;50.816;12.828;2023-11-18T21:39:08;8.43;;;8.02;;
30080;SDS011;16902;50.816;12.828;2023-11-18T21:44:15;8.90;;;8.40;;
30080;SDS011;16902;50.816;12.828;2023-11-18T21:49:17;8.00;;;7.60;;
30080;SDS011;16902;50.816;12.828;2023-11-18T21:54:19;8.75;;;8.25;;
30080;SDS011;16902;50.816;12.828;2023-11-18T21:59:20;8.55;;;8.15;;
30080;SDS011;16902;50.816;12.828;2023-11-18T22:04:23;8.00;;;7.65;;
30080;SDS011;16902;50.816;12.828;2023-11-18T22:09:25;7.80;;;7.50;;
30080;SDS011;16902;50.816;12.828;2023-11-18T22:14:26;8.20;;;7.80;;
30080;SDS011;16902;50.816;12.828;2023-11-18T22:19:28;7.82;;;7.53;;
30080;SDS011;16902;50.816;12.828;2023-11-18T22:24:30;7.65;;;7.35;;
30080;SDS011;16902;50.816;12.828;2023-11-18T22:29:31;6.80;;;6.60;;
30080;SDS011;16902;50.816;12.828;2023-11-18T22:34:34;7.50;;;7.10;;
30080;SDS011;16902;50.816;12.828;2023-11-18T22:39:36;8.05;;;7.68;;
30080;SDS011;16902;50.816;12.828;2023-11-18T22:44:38;7.20;;;7.00;;
30080;SDS011;16902;50.816;12.828;2023-11-18T22:49:46;6.82;;;6.63;;
30080;SDS011;16902;50.816;12.828;2023-11-18T22:54:48;7.60;;;7.30;;
30080;SDS011;16902;50.816;12.828;2023-11-18T22:59:50;7.65;;;7.25;;
30080;SDS011;16902;50.816;12.828;2023-11-18T23:04:52;6.90;;;6.60;;
30080;SDS011;16902;50.816;12.828;2023-11-18T23:09:58;6.50;;;6.22;;
30080;SDS011;16902;50.816;12.828;2023-11-18T23:15:01;6.60;;;6.38;;
30080;SDS011;16902;50.816;12.828;2023-11-18T23:20:05;6.22;;;6.03;;
30080;SDS011;16902;50.816;12.828;2023-11-18T23:25:12;7.38;;;7.07;;
30080;SDS011;16902;50.816;12.828;2023-11-18T23:30:14;6.20;;;6.00;;
30080;SDS011;16902;50.816;12.828;2023-11-18T23:35:15;6.32;;;6.13;;
30080;SDS011;16902;50.816;12.828;2023-11-18T23:40:19;6.03;;;5.82;;
30080;SDS011;16902;50.816;12.828;2023-11-18T23:45:22;6.78;;;6.47;;
30080;SDS011;16902;50.816;12.828;2023-11-18T23:50:25;6.25;;;6.05;;
30080;SDS011;16902;50.816;12.828;2023-11-18T23:55:29;6.40;;;6.20;;
